Time;durP1;ratioP1;P1;durP2;ratioP2;P2;SDS_P1;SDS_P2;PMS_P1;PMS_P2;Temp;Humidity;BMP_temperature;BMP_pressure;BME280_temperature;BME280_humidity;BME280_pressure;Samples;Min_cycle;Max_cycle;Signal;HPM_P1;HPM_P2
2023/05/09 00:00:10;;;;;;;30.98;14.43;;;;;;;4.32;72.23;148398.34;5055351;28;20148;-63
2023/05/09 00:02:37;;;;;;;25.38;13.50;;;;;;;4.32;71.84;148397.09;5063613;28;20059;-65
2023/05/09 00:05:03;;;;;;;33.10;14.00;;;;;;;4.29;72.19;148390.72;5063377;28;20041;-64
2023/05/09 00:07:30;;;;;;;23.98;12.52;;;;;;;4.21;72.22;148370.28;5063854;28;20035;-66
2023/05/09 00:09:56;;;;;;;23.63;12.45;;;;;;;4.11;72.92;148344.78;5063831;28;20024;-65
2023/05/09 00:12:22;;;;;;;24.20;12.57;;;;;;;4.07;72.92;148335.81;5063479;28;20047;-66
2023/05/09 00:14:50;;;;;;;23.95;13.65;;;;;;;4.12;72.88;148348.59;5046093;28;20337;-64
2023/05/09 00:17:18;;;;;;;22.23;12.85;;;;;;;4.12;71.81;148348.59;5059053;28;20068;-65
2023/05/09 00:19:44;;;;;;;25.77;12.68;;;;;;;4.13;71.92;148349.84;5043686;28;20032;-65
2023/05/09 00:22:11;;;;;;;27.65;12.15;;;;;;;4.07;72.51;148334.56;5058774;28;20039;-65
2023/05/09 00:24:38;;;;;;;29.20;13.05;;;;;;;4.07;72.68;148335.81;5063299;28;20074;-66
2023/05/09 00:27:03;;;;;;;26.17;12.98;;;;;;;4.01;73.02;148320.53;5063115;28;20032;-64
2023/05/09 00:29:29;;;;;;;26.63;13.73;;;;;;;3.94;73.43;148303.94;5063189;28;20082;-64
2023/05/09 00:31:55;;;;;;;26.30;13.55;;;;;;;3.91;73.59;148295.03;5061984;28;20032;-64
2023/05/09 00:34:20;;;;;;;24.33;13.00;;;;;;;3.87;73.11;148284.81;5043186;28;20060;-65
2023/05/09 00:36:46;;;;;;;25.17;14.40;;;;;;;3.97;72.67;148311.56;5042601;28;20025;-65
2023/05/09 00:39:12;;;;;;;26.33;13.10;;;;;;;4.01;73.22;148319.28;5056854;28;20092;-65
2023/05/09 00:41:38;;;;;;;27.60;14.20;;;;;;;4.04;72.50;148326.91;5071749;28;20041;-64
2023/05/09 00:44:03;;;;;;;26.42;14.20;;;;;;;4.07;73.06;148335.81;5062695;28;20040;-65
2023/05/09 00:46:29;;;;;;;26.98;14.02;;;;;;;4.03;73.59;148324.34;5062639;28;20310;-65
2023/05/09 00:48:55;;;;;;;24.27;13.90;;;;;;;4.07;72.85;148334.56;5062659;28;20029;-65
2023/05/09 00:51:21;;;;;;;34.50;14.55;;;;;;;4.01;73.13;148319.28;5062045;28;20024;-65
2023/05/09 00:53:47;;;;;;;27.90;13.82;;;;;;;3.92;73.96;148297.53;5053893;28;20025;-65
2023/05/09 00:56:14;;;;;;;26.27;13.65;;;;;;;3.89;73.82;148289.91;5045988;28;20032;-64
2023/05/09 00:58:40;;;;;;;28.38;14.75;;;;;;;3.71;74.51;148245.28;5041878;28;20052;-65
2023/05/09 01:01:07;;;;;;;29.90;14.82;;;;;;;3.75;73.99;148256.75;5060879;28;20028;-65
2023/05/09 01:03:34;;;;;;;30.60;15.65;;;;;;;3.81;73.84;148270.78;5062174;28;20056;-64
2023/05/09 01:06:16;;;;;;;28.10;15.52;;;;;;;3.78;73.81;148264.41;5062183;28;20059;-65
2023/05/09 01:08:51;;;;;;;27.33;15.50;;;;;;;3.88;73.39;148287.38;5062897;28;20111;-64
2023/05/09 01:11:35;;;;;;;29.95;15.13;;;;;;;3.65;73.88;148229.94;5048463;28;20190;-65
2023/05/09 01:14:19;;;;;;;21.65;13.63;;;;;;;3.81;73.88;148270.78;5062092;28;20345;-65
2023/05/09 01:16:54;;;;;;;29.08;14.10;;;;;;;3.72;74.20;148247.81;5062607;28;20037;-66
2023/05/09 01:19:49;;;;;;;29.40;13.63;;;;;;;3.63;74.42;148227.44;5042629;28;20029;-65
2023/05/09 01:22:17;;;;;;;26.63;15.10;;;;;;;3.57;74.89;148212.09;5040640;28;20041;-66
2023/05/09 01:25:13;;;;;;;26.35;14.82;;;;;;;3.47;75.15;148186.59;5046426;28;20053;-66
2023/05/09 01:27:52;;;;;;;25.58;15.65;;;;;;;3.57;75.13;148212.09;5061508;28;20036;-64
2023/05/09 01:30:19;;;;;;;26.33;15.10;;;;;;;3.60;74.11;148218.50;5062120;28;20051;-65
2023/05/09 01:32:48;;;;;;;27.33;15.95;;;;;;;3.50;74.75;148193.00;5054397;28;20094;-66
2023/05/09 01:35:15;;;;;;;33.53;17.02;;;;;;;3.59;74.43;148217.22;5045785;28;20041;-66
2023/05/09 01:37:44;;;;;;;32.92;16.27;;;;;;;3.66;74.74;148233.78;5044756;28;20116;-66
2023/05/09 01:40:13;;;;;;;29.25;16.70;;;;;;;3.62;74.31;148224.88;5062708;28;20040;-66
2023/05/09 01:42:51;;;;;;;28.45;16.08;;;;;;;3.49;74.48;148190.44;5047817;28;20055;-65
2023/05/09 01:45:18;;;;;;;37.97;17.00;;;;;;;3.51;75.02;148196.81;5040035;28;20021;-66
2023/05/09 01:47:47;;;;;;;32.70;16.10;;;;;;;3.42;75.82;148175.16;5062038;28;20047;-65
2023/05/09 01:50:16;;;;;;;33.40;15.70;;;;;;;3.34;75.11;148153.47;5062075;28;20052;-65
2023/05/09 01:52:42;;;;;;;27.60;15.88;;;;;;;3.42;75.13;148173.84;5062055;28;20029;-65
2023/05/09 01:55:09;;;;;;;30.95;16.10;;;;;;;3.50;75.19;148193.00;5062163;28;20313;-65
2023/05/09 01:57:37;;;;;;;34.00;15.85;;;;;;;3.51;75.39;148196.81;5047490;28;20026;-65
2023/05/09 02:00:06;;;;;;;28.52;16.02;;;;;;;3.51;74.68;148196.81;5052017;28;20031;-66
2023/05/09 02:02:32;;;;;;;30.35;15.88;;;;;;;3.51;75.11;148196.81;5061861;28;20056;-66
2023/05/09 02:04:59;;;;;;;30.83;15.60;;;;;;;3.45;75.52;148181.53;5061932;28;20363;-65
2023/05/09 02:07:27;;;;;;;35.47;17.13;;;;;;;3.44;75.48;148178.97;5061827;28;20132;-66
2023/05/09 02:09:55;;;;;;;25.42;16.05;;;;;;;3.39;76.08;148167.50;5045266;28;20040;-65
2023/05/09 02:12:23;;;;;;;28.13;15.20;;;;;;;3.44;75.31;148180.22;5061901;28;20064;-65
2023/05/09 02:14:49;;;;;;;27.08;15.02;;;;;;;3.54;75.67;148204.47;5065957;28;20052;-65
2023/05/09 02:17:16;;;;;;;28.40;15.55;;;;;;;3.62;75.01;148224.88;5062641;28;20033;-66
2023/05/09 02:19:42;;;;;;;31.75;16.33;;;;;;;3.74;75.15;148252.94;5044835;28;20088;-65
2023/05/09 02:22:28;;;;;;;28.70;15.20;;;;;;;3.70;75.19;148242.72;5060618;28;20064;-65
2023/05/09 02:24:54;;;;;;;29.02;15.95;;;;;;;3.84;74.53;148278.44;5065988;28;20036;-65
2023/05/09 02:27:21;;;;;;;31.05;16.90;;;;;;;4.41;73.09;148420.03;5053489;28;20036;-64
2023/05/09 02:29:50;;;;;;;32.40;16.67;;;;;;;4.82;71.47;148520.91;5057910;28;20036;-65
2023/05/09 02:32:20;;;;;;;34.45;16.58;;;;;;;4.97;71.02;148559.19;5062039;28;20079;-65
2023/05/09 02:34:47;;;;;;;36.53;16.45;;;;;;;4.98;70.47;148561.72;5045644;28;20037;-66
2023/05/09 02:37:14;;;;;;;36.67;16.77;;;;;;;4.95;70.57;148554.06;5064051;28;20024;-65
2023/05/09 02:39:40;;;;;;;30.75;15.77;;;;;;;5.25;70.17;148628.13;5045050;28;20020;-65
2023/05/09 02:42:09;;;;;;;34.33;16.13;;;;;;;5.39;70.18;148661.31;5069935;28;20070;-64
2023/05/09 02:44:36;;;;;;;29.33;15.27;;;;;;;5.18;70.48;148610.25;5065357;28;20306;-65
2023/05/09 02:47:06;;;;;;;34.90;16.63;;;;;;;5.11;71.02;148592.38;5064334;28;20024;-65
2023/05/09 02:49:32;;;;;;;26.17;14.05;;;;;;;5.00;71.59;148566.84;5027981;28;20034;-65
2023/05/09 02:51:58;;;;;;;30.80;16.25;;;;;;;5.12;71.27;148594.94;5061938;28;20071;-66
2023/05/09 02:54:23;;;;;;;35.83;16.60;;;;;;;5.23;71.72;148621.75;5053130;28;20033;-66
2023/05/09 02:56:49;;;;;;;31.33;15.75;;;;;;;5.28;71.26;148635.78;5050548;28;20033;-65
2023/05/09 02:59:15;;;;;;;32.08;16.38;;;;;;;5.19;71.04;148612.81;5047793;28;20029;-66
2023/05/09 03:01:41;;;;;;;35.72;16.85;;;;;;;5.34;71.17;148649.84;5064478;28;20028;-65
2023/05/09 03:04:06;;;;;;;38.97;16.52;;;;;;;5.38;70.38;148658.78;5064331;28;20059;-65
2023/05/09 03:06:32;;;;;;;31.20;15.48;;;;;;;5.55;70.54;148700.94;5063899;28;20071;-65
2023/05/09 03:08:58;;;;;;;38.45;15.80;;;;;;;5.68;70.27;148734.16;5045880;28;20266;-66
2023/05/09 03:11:23;;;;;;;35.42;18.58;;;;;;;5.71;69.61;148741.81;5059657;28;20079;-65
2023/05/09 03:13:49;;;;;;;34.42;19.08;;;;;;;5.82;70.11;148769.91;5009857;28;20071;-66
2023/05/09 03:16:17;;;;;;;37.88;19.08;;;;;;;5.88;69.29;148783.97;5062448;28;20029;-66
2023/05/09 03:18:42;;;;;;;35.28;17.92;;;;;;;5.86;68.99;148780.13;5049132;28;20043;-66
2023/05/09 03:21:08;;;;;;;32.38;18.02;;;;;;;6.05;68.76;148826.19;5053216;28;20080;-65
2023/05/09 03:23:34;;;;;;;35.60;16.85;;;;;;;6.10;68.16;148837.66;5060133;28;20205;-66
2023/05/09 03:25:59;;;;;;;31.58;17.52;;;;;;;6.21;68.51;148867.09;5062762;28;20025;-66
2023/05/09 03:28:27;;;;;;;30.55;16.70;;;;;;;6.21;67.78;148867.09;5026678;28;20341;-66
2023/05/09 03:30:52;;;;;;;32.67;16.95;;;;;;;6.38;67.67;148909.28;5063058;28;20096;-65
2023/05/09 03:33:18;;;;;;;27.45;15.57;;;;;;;6.49;66.58;148936.09;5062494;28;20226;-66
2023/05/09 03:35:43;;;;;;;32.95;15.55;;;;;;;6.64;66.19;148973.19;5062898;28;20032;-66
2023/05/09 03:38:09;;;;;;;31.15;15.82;;;;;;;6.73;65.83;148994.91;5062871;28;20047;-66
2023/05/09 03:40:35;;;;;;;27.10;14.40;;;;;;;6.88;64.57;149031.97;5074124;28;20035;-66
2023/05/09 03:43:00;;;;;;;31.02;15.00;;;;;;;7.04;64.16;149072.91;5063391;28;20206;-69
2023/05/09 03:45:26;;;;;;;31.63;13.70;;;;;;;7.13;63.88;149093.41;5066780;28;20021;-65
2023/05/09 03:47:51;;;;;;;28.50;14.00;;;;;;;7.21;64.03;149113.81;5055960;28;20044;-65
2023/05/09 03:50:17;;;;;;;23.33;13.35;;;;;;;7.30;64.24;149136.88;5045585;28;20052;-66
2023/05/09 03:52:43;;;;;;;38.97;15.00;;;;;;;7.37;64.59;149154.78;5063313;28;20025;-65
2023/05/09 03:55:09;;;;;;;23.33;12.77;;;;;;;7.42;62.30;149167.59;5064062;28;20029;-65
2023/05/09 03:57:35;;;;;;;22.92;12.23;;;;;;;7.57;62.18;149204.66;5062690;28;20369;-66
2023/05/09 04:00:02;;;;;;;21.65;11.27;;;;;;;7.77;61.16;149253.28;5062926;28;20033;-66
2023/05/09 04:02:29;;;;;;;19.58;10.65;;;;;;;7.86;55.82;149275.03;5044009;28;20218;-66
2023/05/09 04:04:55;;;;;;;21.10;10.25;;;;;;;8.01;55.94;149313.44;5016054;28;1327713;-65
2023/05/09 04:07:21;;;;;;;19.17;9.00;;;;;;;8.09;55.32;149333.94;5063473;28;20104;-65
2023/05/09 04:09:47;;;;;;;16.27;8.93;;;;;;;8.22;56.88;149364.63;5063971;28;20415;-66
2023/05/09 04:12:12;;;;;;;16.70;8.23;;;;;;;8.30;53.50;149385.13;5053519;28;20064;-66
2023/05/09 04:14:38;;;;;;;19.73;8.93;;;;;;;8.36;53.56;149399.19;5049187;28;20226;-67
2023/05/09 04:17:04;;;;;;;12.63;7.45;;;;;;;8.44;52.06;149421.00;5061917;28;20028;-67
2023/05/09 04:19:29;;;;;;;11.82;7.22;;;;;;;8.50;50.32;149433.84;5043821;28;20152;-67
2023/05/09 04:21:55;;;;;;;13.93;8.10;;;;;;;8.50;49.64;149433.84;5059196;28;20071;-67
2023/05/09 04:24:21;;;;;;;9.77;6.53;;;;;;;8.69;50.42;149482.44;5063598;28;20051;-67
2023/05/09 04:26:46;;;;;;;12.55;7.05;;;;;;;8.81;49.83;149513.19;5063442;28;20032;-66
2023/05/09 04:29:12;;;;;;;12.90;7.18;;;;;;;8.84;48.96;149518.34;5063359;28;20091;-65
2023/05/09 04:31:37;;;;;;;12.10;6.95;;;;;;;8.88;48.16;149528.56;5063003;28;20306;-66
2023/05/09 04:34:03;;;;;;;17.08;6.47;;;;;;;9.21;48.54;149611.84;5027939;28;20112;-66
2023/05/09 04:36:30;;;;;;;11.88;6.35;;;;;;;9.55;46.80;149696.41;5054869;28;20086;-66
2023/05/09 04:38:56;;;;;;;13.02;6.47;;;;;;;9.87;45.81;149774.59;5055904;28;20205;-66
2023/05/09 04:41:22;;;;;;;11.45;6.50;;;;;;;9.97;45.55;149800.22;5071419;28;20061;-67
2023/05/09 04:43:48;;;;;;;9.93;6.00;;;;;;;10.11;44.47;149836.09;5043290;28;20021;-67
2023/05/09 04:46:13;;;;;;;8.32;5.38;;;;;;;10.25;44.27;149870.72;5060883;28;20063;-67
2023/05/09 04:48:40;;;;;;;10.52;4.55;;;;;;;10.28;43.40;149877.16;5063040;28;20124;-67
2023/05/09 04:51:06;;;;;;;6.25;3.47;;;;;;;10.61;40.76;149960.53;5062684;28;20029;-66
2023/05/09 04:53:33;;;;;;;6.07;3.42;;;;;;;11.43;38.12;150164.53;5059035;28;20054;-67
2023/05/09 04:55:58;;;;;;;4.85;3.10;;;;;;;12.32;36.48;150385.38;5048370;28;20033;-67
2023/05/09 04:58:25;;;;;;;6.90;3.08;;;;;;;12.97;35.61;150547.19;5043228;28;20052;-67
2023/05/09 05:00:51;;;;;;;5.97;3.13;;;;;;;13.39;34.50;150652.63;5057453;28;20028;-68
2023/05/09 05:03:17;;;;;;;3.85;2.70;;;;;;;13.97;31.69;150797.88;5052404;28;20025;-67
2023/05/09 05:05:43;;;;;;;4.00;2.75;;;;;;;13.98;32.95;150801.72;5047663;28;20056;-66
2023/05/09 05:08:08;;;;;;;4.93;2.80;;;;;;;14.52;33.19;150934.19;5061903;28;20318;-67
2023/05/09 05:10:34;;;;;;;6.72;2.88;;;;;;;14.16;33.07;150845.44;5044535;28;20372;-68
2023/05/09 05:13:00;;;;;;;3.17;2.50;;;;;;;14.29;33.12;150878.91;5048507;28;20091;-67
2023/05/09 05:15:25;;;;;;;4.28;3.00;;;;;;;14.45;33.14;150917.44;5062322;28;20052;-67
2023/05/09 05:17:51;;;;;;;4.68;2.50;;;;;;;14.20;32.08;150855.72;5055898;28;20064;-68
2023/05/09 05:20:17;;;;;;;4.68;2.78;;;;;;;14.15;32.77;150842.84;5043960;28;20206;-67
2023/05/09 05:22:43;;;;;;;4.05;2.70;;;;;;;14.18;32.76;150850.59;5061717;28;20045;-67
2023/05/09 05:25:08;;;;;;;4.47;2.78;;;;;;;14.24;32.51;150864.75;5045475;28;20032;-67
2023/05/09 05:27:34;;;;;;;3.88;2.40;;;;;;;14.38;34.06;150900.75;5048491;28;20064;-67
2023/05/09 05:30:00;;;;;;;3.75;2.63;;;;;;;13.92;31.11;150785.00;5056419;28;20032;-68
2023/05/09 05:32:25;;;;;;;4.35;2.40;;;;;;;14.09;31.46;150828.69;5061821;28;20024;-68
2023/05/09 05:34:51;;;;;;;6.30;2.38;;;;;;;13.99;33.32;150803.00;5062554;28;20051;-68
2023/05/09 05:37:16;;;;;;;2.53;1.98;;;;;;;13.97;31.99;150797.88;5061534;28;20213;-68
2023/05/09 05:39:42;;;;;;;3.97;2.38;;;;;;;14.02;30.72;150809.44;5061377;28;20024;-67
2023/05/09 05:42:08;;;;;;;3.90;2.15;;;;;;;14.35;31.87;150891.72;5066391;28;20024;-68
2023/05/09 05:44:33;;;;;;;4.63;2.08;;;;;;;14.49;32.02;150929.06;5062095;28;20059;-68
2023/05/09 05:46:59;;;;;;;3.78;2.58;;;;;;;14.65;32.74;150968.97;5062118;28;20481;-67
2023/05/09 05:49:24;;;;;;;4.50;2.42;;;;;;;14.49;30.70;150929.06;5042999;28;20030;-67
2023/05/09 05:51:50;;;;;;;5.25;3.05;;;;;;;14.19;31.11;150851.88;5056103;28;20236;-67
2023/05/09 05:54:16;;;;;;;6.70;3.17;;;;;;;14.35;31.79;150891.72;5034662;28;20118;-67
2023/05/09 05:56:42;;;;;;;8.15;2.85;;;;;;;14.46;31.82;150921.28;5053117;28;20047;-67
2023/05/09 05:59:07;;;;;;;3.17;2.17;;;;;;;14.06;30.34;150819.72;5061431;28;20095;-67
2023/05/09 06:01:33;;;;;;;5.00;2.50;;;;;;;14.09;31.42;150827.44;5050294;28;20075;-68
2023/05/09 06:03:58;;;;;;;2.53;2.33;;;;;;;13.97;32.77;150797.88;5061568;28;20025;-67
2023/05/09 06:06:25;;;;;;;2.58;2.25;;;;;;;14.12;31.99;150836.47;5061860;28;20058;-68
2023/05/09 06:08:51;;;;;;;5.35;2.63;;;;;;;14.09;31.64;150827.44;5056057;28;20065;-67
2023/05/09 06:11:17;;;;;;;2.30;2.10;;;;;;;14.09;31.26;150828.69;5049668;28;20024;-66
2023/05/09 06:13:43;;;;;;;3.50;1.90;;;;;;;13.90;31.03;150781.16;5061992;28;20044;-68
2023/05/09 06:16:09;;;;;;;2.13;1.55;;;;;;;14.05;30.81;150818.47;5061283;28;20041;-68
2023/05/09 06:18:36;;;;;;;1.95;1.50;;;;;;;13.71;29.46;150732.28;5049969;28;20105;-68
2023/05/09 06:21:06;;;;;;;3.17;1.63;;;;;;;13.69;29.06;150727.16;5048966;28;20078;-67
2023/05/09 06:23:32;;;;;;;1.52;1.42;;;;;;;13.78;30.37;150750.28;5058710;28;20033;-67
2023/05/09 06:25:57;;;;;;;1.95;1.38;;;;;;;13.89;31.08;150778.56;5045849;28;20021;-67
2023/05/09 06:28:23;;;;;;;2.65;1.90;;;;;;;13.86;31.30;150770.88;5061485;28;20097;-66
2023/05/09 06:30:49;;;;;;;3.38;1.70;;;;;;;13.65;29.79;150718.16;5061611;28;20074;-67
2023/05/09 06:33:14;;;;;;;3.17;1.80;;;;;;;13.75;30.43;150742.56;5061522;28;20032;-67
2023/05/09 06:35:40;;;;;;;3.20;1.70;;;;;;;13.96;31.48;150796.56;5061516;28;20520;-67
2023/05/09 06:38:06;;;;;;;3.13;1.70;;;;;;;14.10;31.20;150830.03;5061712;28;20033;-67
2023/05/09 06:40:31;;;;;;;3.15;1.90;;;;;;;14.02;30.36;150809.44;5065795;28;20021;-67
2023/05/09 06:42:57;;;;;;;7.28;1.85;;;;;;;14.19;31.63;150853.16;5046786;28;20032;-66
2023/05/09 06:45:22;;;;;;;3.50;1.58;;;;;;;14.11;29.22;150833.88;5051244;28;20178;-67
2023/05/09 06:47:48;;;;;;;2.13;1.65;;;;;;;14.17;29.99;150846.75;5061602;28;20029;-66
2023/05/09 06:50:14;;;;;;;2.75;1.60;;;;;;;14.06;31.70;150819.72;5061257;28;20314;-67
2023/05/09 06:52:39;;;;;;;1.70;1.55;;;;;;;14.25;30.68;150867.28;5060137;28;20063;-66
2023/05/09 06:55:05;;;;;;;2.05;1.45;;;;;;;14.11;29.62;150832.59;5045940;28;20036;-66
2023/05/09 06:57:31;;;;;;;2.25;1.50;;;;;;;14.04;27.77;150814.56;5067388;28;20021;-67
2023/05/09 06:59:57;;;;;;;2.47;1.30;;;;;;;14.10;29.10;150831.28;5065192;28;20040;-67
2023/05/09 07:02:22;;;;;;;4.85;1.50;;;;;;;13.79;29.66;150754.13;5063305;28;20036;-67
2023/05/09 07:04:48;;;;;;;2.15;1.60;;;;;;;13.65;31.13;150718.16;5045259;28;20045;-66
2023/05/09 07:07:15;;;;;;;4.95;1.92;;;;;;;13.43;29.96;150664.16;5061576;28;20033;-67
2023/05/09 07:09:40;;;;;;;3.13;1.90;;;;;;;13.57;31.12;150697.63;5052754;28;20092;-67
2023/05/09 07:12:06;;;;;;;3.00;1.50;;;;;;;13.79;28.80;150752.88;5051132;28;20028;-69
2023/05/09 07:14:32;;;;;;;5.05;3.40;;;;;;;14.09;30.77;150828.69;5047641;28;20032;-67
2023/05/09 07:16:57;;;;;;;3.00;1.70;;;;;;;14.08;29.64;150824.84;5064387;28;20052;-67
2023/05/09 07:19:23;;;;;;;1.50;1.40;;;;;;;14.26;29.01;150871.16;5028809;28;20048;-67
2023/05/09 07:21:48;;;;;;;1.80;1.30;;;;;;;14.38;29.34;150900.75;5056600;28;20039;-68
2023/05/09 07:24:14;;;;;;;2.08;1.45;;;;;;;14.39;28.90;150902.03;5055703;28;20029;-67
2023/05/09 07:26:40;;;;;;;5.55;1.67;;;;;;;14.63;28.73;150963.78;5055732;28;20028;-67
2023/05/09 07:29:05;;;;;;;4.35;1.55;;;;;;;14.43;28.35;150913.59;5064596;28;20328;-67
2023/05/09 07:31:31;;;;;;;3.10;1.45;;;;;;;14.39;28.87;150902.03;5063890;28;20021;-67
2023/05/09 07:33:57;;;;;;;1.60;1.50;;;;;;;14.39;29.49;150903.28;5062666;28;20052;-67
2023/05/09 07:36:23;;;;;;;2.83;1.42;;;;;;;14.03;29.61;150813.28;5064195;28;20096;-68
2023/05/09 07:38:51;;;;;;;3.42;1.70;;;;;;;13.98;28.62;150801.72;5059584;28;20040;-68
2023/05/09 07:41:16;;;;;;;3.78;1.75;;;;;;;14.06;28.59;150819.72;5074341;28;20024;-66
2023/05/09 07:43:42;;;;;;;2.15;1.50;;;;;;;14.05;30.20;150817.16;5046619;28;20297;-67
2023/05/09 07:46:08;;;;;;;2.60;1.40;;;;;;;13.87;27.52;150772.19;5063828;28;20029;-68
2023/05/09 07:48:33;;;;;;;1.55;1.45;;;;;;;13.56;27.88;150696.31;5064423;28;20314;-68
2023/05/09 07:50:59;;;;;;;3.53;1.50;;;;;;;13.62;29.24;150710.44;5064056;28;20067;-67
2023/05/09 07:53:25;;;;;;;1.77;1.38;;;;;;;13.69;29.69;150727.16;5062475;28;20210;-68
2023/05/09 07:55:51;;;;;;;1.95;1.38;;;;;;;13.64;29.16;150716.88;5048268;28;20310;-68
2023/05/09 07:58:16;;;;;;;2.67;1.73;;;;;;;13.56;28.19;150696.31;5065923;28;20047;-67
2023/05/09 08:00:42;;;;;;;2.65;1.50;;;;;;;13.54;29.15;150691.19;5063918;28;20056;-69
2023/05/09 08:03:07;;;;;;;3.17;1.30;;;;;;;13.60;29.06;150706.59;5056810;28;20089;-67
2023/05/09 08:05:33;;;;;;;2.88;1.70;;;;;;;13.63;29.05;150714.28;5046109;28;20045;-66
2023/05/09 08:07:59;;;;;;;3.78;2.00;;;;;;;13.65;29.61;150718.16;5063392;28;20028;-67
2023/05/09 08:10:25;;;;;;;3.80;1.80;;;;;;;13.55;28.50;150693.75;5046001;28;20025;-68
2023/05/09 08:12:51;;;;;;;14.05;2.17;;;;;;;13.61;29.61;150707.84;5049622;28;20026;-68
2023/05/09 08:15:17;;;;;;;1.50;1.40;;;;;;;13.54;29.89;150689.88;5052022;28;20107;-67
2023/05/09 08:17:43;;;;;;;2.60;1.60;;;;;;;13.50;29.36;150679.63;5063482;28;20143;-68
2023/05/09 08:20:10;;;;;;;4.55;1.73;;;;;;;13.61;30.22;150709.16;5063718;28;20325;-67
2023/05/09 08:22:37;;;;;;;2.80;1.70;;;;;;;13.62;30.63;150711.75;5063276;28;20078;-68
2023/05/09 08:25:04;;;;;;;2.20;1.60;;;;;;;13.61;30.96;150709.16;5067687;28;20056;-67
2023/05/09 08:27:29;;;;;;;2.38;1.50;;;;;;;13.63;31.12;150714.28;5063052;28;20063;-68
2023/05/09 08:29:55;;;;;;;2.50;1.70;;;;;;;13.51;29.65;150682.16;5063349;28;20207;-68
2023/05/09 08:32:20;;;;;;;3.95;1.50;;;;;;;13.51;29.14;150682.16;5062180;28;20029;-67
2023/05/09 08:34:46;;;;;;;3.10;2.20;;;;;;;13.52;29.79;150686.00;5043009;28;20032;-68
2023/05/09 08:37:11;;;;;;;2.55;1.35;;;;;;;13.69;30.72;150728.44;5053618;28;20059;-67
2023/05/09 08:39:37;;;;;;;2.90;1.45;;;;;;;13.91;29.21;150783.72;5069099;28;20058;-68
2023/05/09 08:42:03;;;;;;;1.67;1.35;;;;;;;13.95;28.15;150794.03;5068621;28;20112;-67
2023/05/09 08:44:29;;;;;;;1.60;1.50;;;;;;;13.97;28.57;150799.16;5062962;28;20107;-67
2023/05/09 08:47:00;;;;;;;1.80;1.52;;;;;;;13.37;27.15;150647.50;5052047;28;20029;-67
2023/05/09 08:49:26;;;;;;;2.45;1.42;;;;;;;13.34;26.77;150641.00;5045067;28;20033;-67
2023/05/09 08:51:53;;;;;;;12.13;9.30;;;;;;;13.36;27.21;150644.91;5055834;28;20037;-67
2023/05/09 08:54:19;;;;;;;2.97;1.90;;;;;;;13.57;27.14;150697.63;5062562;28;20025;-67
2023/05/09 08:56:45;;;;;;;1.45;1.30;;;;;;;13.59;29.14;150702.72;5059370;28;20087;-68
2023/05/09 08:59:12;;;;;;;1.83;1.50;;;;;;;13.46;27.15;150671.88;5043254;28;20053;-68
2023/05/09 09:01:38;;;;;;;3.85;1.30;;;;;;;13.42;26.32;150660.31;5062248;28;20029;-67
2023/05/09 09:04:07;;;;;;;2.70;1.38;;;;;;;13.41;25.45;150657.72;5050858;28;20036;-69
2023/05/09 09:06:34;;;;;;;1.95;1.65;;;;;;;14.03;26.09;150813.28;5065781;28;20061;-67
2023/05/09 09:09:01;;;;;;;2.17;1.77;;;;;;;14.15;25.75;150842.84;5059915;28;20133;-68
2023/05/09 09:11:30;;;;;;;2.85;1.40;;;;;;;14.52;26.25;150934.19;5062427;28;20029;-68
2023/05/09 09:14:01;;;;;;;1.58;1.48;;;;;;;14.78;25.40;150999.84;5044895;28;20399;-68
2023/05/09 09:16:28;;;;;;;2.97;1.40;;;;;;;14.76;25.14;150994.69;5044734;28;20032;-68
2023/05/09 09:18:55;;;;;;;1.67;1.52;;;;;;;14.96;26.03;151046.19;5049855;28;20036;-68
2023/05/09 09:21:22;;;;;;;1.50;1.40;;;;;;;14.62;24.67;150959.94;5050244;28;20201;-67
2023/05/09 09:23:48;;;;;;;2.85;2.30;;;;;;;14.71;26.01;150983.13;5057981;28;20063;-69
2023/05/09 09:26:15;;;;;;;1.63;1.52;;;;;;;14.90;27.45;151030.72;5049972;28;20028;-68
2023/05/09 09:28:41;;;;;;;1.95;1.67;;;;;;;14.33;25.78;150887.88;5062362;28;20029;-67
2023/05/09 09:31:27;;;;;;;1.58;1.48;;;;;;;14.43;26.79;150912.31;5062128;28;20025;-67
2023/05/09 09:34:01;;;;;;;3.05;1.85;;;;;;;14.53;27.94;150936.75;5061159;28;20040;-69
2023/05/09 09:36:35;;;;;;;2.28;1.67;;;;;;;14.41;26.91;150908.47;5033747;28;20033;-67
2023/05/09 09:39:07;;;;;;;2.55;1.77;;;;;;;14.30;26.30;150880.16;5062749;28;20087;-68
2023/05/09 09:41:37;;;;;;;2.30;2.10;;;;;;;14.35;27.34;150893.06;5071651;28;20037;-66
2023/05/09 09:44:07;;;;;;;3.25;1.90;;;;;;;14.49;27.58;150927.75;5062252;28;20024;-69
2023/05/09 09:46:50;;;;;;;2.00;1.75;;;;;;;14.49;27.11;150927.75;5061942;28;20205;-69
2023/05/09 09:49:18;;;;;;;2.50;1.60;;;;;;;14.55;27.86;150941.88;5062148;28;20027;-68
2023/05/09 09:51:44;;;;;;;3.25;1.58;;;;;;;14.49;27.55;150929.06;5050547;28;20048;-69
2023/05/09 09:54:11;;;;;;;3.08;2.00;;;;;;;14.43;27.69;150912.31;5048258;28;20350;-69
2023/05/09 09:56:45;;;;;;;3.13;1.92;;;;;;;14.43;27.97;150912.31;5044225;28;20037;-67
2023/05/09 09:59:19;;;;;;;6.22;2.03;;;;;;;14.41;28.58;150907.16;5062109;28;20320;-68
2023/05/09 10:02:03;;;;;;;1.90;1.80;;;;;;;14.20;28.39;150855.72;5061765;28;20088;-70
2023/05/09 10:04:46;;;;;;;2.63;1.80;;;;;;;14.30;27.56;150881.44;5044268;28;20044;-68
2023/05/09 10:07:12;;;;;;;3.60;1.88;;;;;;;14.41;28.64;150907.16;5042466;28;20072;-67
2023/05/09 10:09:38;;;;;;;4.57;1.60;;;;;;;14.25;26.89;150868.59;5052141;28;20025;-67
2023/05/09 10:12:05;;;;;;;1.77;1.55;;;;;;;14.46;28.18;150920.03;5038278;28;20028;-67
2023/05/09 10:14:33;;;;;;;1.80;1.60;;;;;;;14.55;28.09;150941.88;5042561;28;20029;-68
2023/05/09 10:17:00;;;;;;;2.47;1.73;;;;;;;14.74;28.10;150989.56;5061763;28;20029;-68
2023/05/09 10:19:28;;;;;;;3.22;1.95;;;;;;;14.76;27.25;150995.97;5061759;28;20044;-68
2023/05/09 10:21:56;;;;;;;2.38;1.90;;;;;;;14.95;26.30;151043.59;5048915;28;20029;-69
2023/05/09 10:24:27;;;;;;;2.85;1.80;;;;;;;15.07;26.98;151073.16;5049465;28;20071;-68
2023/05/09 10:27:03;;;;;;;2.70;1.80;;;;;;;14.84;25.73;151015.28;5057602;28;20032;-69
2023/05/09 10:29:33;;;;;;;2.47;1.90;;;;;;;14.59;26.40;150952.19;5051171;28;20045;-70
2023/05/09 10:32:05;;;;;;;2.20;1.90;;;;;;;14.92;26.25;151034.56;5061922;28;20025;-68
2023/05/09 10:34:34;;;;;;;2.78;1.90;;;;;;;14.98;26.14;151051.31;5030463;28;20065;-69
2023/05/09 10:37:00;;;;;;;3.30;1.70;;;;;;;15.04;25.53;151064.19;5046207;28;20322;-67
2023/05/09 10:39:26;;;;;;;2.97;1.80;;;;;;;15.39;28.01;151151.66;5057756;28;20056;-70
2023/05/09 10:41:53;;;;;;;1.83;1.70;;;;;;;15.47;27.43;151172.28;5072091;28;20326;-68
2023/05/09 10:44:22;;;;;;;5.43;1.98;;;;;;;15.23;26.10;151111.78;5047185;28;20064;-70
2023/05/09 10:46:47;;;;;;;2.58;1.80;;;;;;;15.09;27.43;151077.03;5064498;28;20035;-69
2023/05/09 10:49:14;;;;;;;2.10;1.80;;;;;;;14.02;26.65;150810.72;5064700;28;20032;-67
2023/05/09 10:51:40;;;;;;;2.05;1.80;;;;;;;14.41;26.01;150908.47;5047438;28;20017;-68
2023/05/09 10:54:27;;;;;;;4.10;2.10;;;;;;;14.54;26.70;150940.63;5064415;28;20194;-67
2023/05/09 10:56:52;;;;;;;3.22;2.00;;;;;;;14.55;26.99;150943.22;5064454;28;20033;-67
2023/05/09 10:59:39;;;;;;;2.15;1.90;;;;;;;14.29;26.48;150878.91;5064416;28;20037;-66
2023/05/09 11:02:10;;;;;;;3.55;2.80;;;;;;;14.26;27.12;150871.16;5059684;28;20029;-65
2023/05/09 11:04:38;;;;;;;4.20;1.90;;;;;;;14.00;26.43;150805.59;5064869;28;20067;-68
2023/05/09 11:07:22;;;;;;;2.70;1.90;;;;;;;14.15;26.54;150842.84;5065482;28;20142;-70
2023/05/09 11:09:52;;;;;;;3.42;2.00;;;;;;;14.08;26.49;150824.84;5065906;28;20029;-69
2023/05/09 11:12:20;;;;;;;3.55;1.92;;;;;;;14.01;25.66;150808.16;5058250;28;20096;-70
2023/05/09 11:14:48;;;;;;;3.50;1.95;;;;;;;14.13;25.88;150837.72;5047370;28;20321;-68
2023/05/09 11:17:20;;;;;;;2.28;2.08;;;;;;;13.76;25.82;150746.44;5058909;28;20060;-72
2023/05/09 11:19:45;;;;;;;;;;;;;;;14.03;25.36;150813.28;5065465;28;20036;-70
2023/05/09 11:22:29;;;;;;;2.97;2.03;;;;;;;14.26;25.86;150871.16;5064293;28;19913;-67